sensor_id;sensor_type;location;lat;lon;timestamp;temperature;humidity
65396;HTU21D;52004;45.136;39.010;2023-01-01T00:01:31;6.00;72.38
65396;HTU21D;52004;45.136;39.010;2023-01-01T00:03:57;5.97;72.41
65396;HTU21D;52004;45.136;39.010;2023-01-01T00:06:23;5.93;72.42
65396;HTU21D;52004;45.136;39.010;2023-01-01T00:08:50;5.92;72.41
65396;HTU21D;52004;45.136;39.010;2023-01-01T00:11:38;5.89;72.39
65396;HTU21D;52004;45.136;39.010;2023-01-01T00:14:04;5.87;72.39
65396;HTU21D;52004;45.136;39.010;2023-01-01T00:16:30;5.86;72.36
65396;HTU21D;52004;45.136;39.010;2023-01-01T00:18:56;5.85;72.32
65396;HTU21D;52004;45.136;39.010;2023-01-01T00:21:22;5.83;72.35
65396;HTU21D;52004;45.136;39.010;2023-01-01T00:23:48;5.81;72.35
65396;HTU21D;52004;45.136;39.010;2023-01-01T00:26:14;5.81;72.34
65396;HTU21D;52004;45.136;39.010;2023-01-01T00:28:41;5.79;72.32
65396;HTU21D;52004;45.136;39.010;2023-01-01T00:31:14;5.75;72.32
65396;HTU21D;52004;45.136;39.010;2023-01-01T00:33:44;5.72;72.32
65396;HTU21D;52004;45.136;39.010;2023-01-01T00:36:11;5.68;72.26
65396;HTU21D;52004;45.136;39.010;2023-01-01T00:38:38;5.62;72.28
65396;HTU21D;52004;45.136;39.010;2023-01-01T00:41:04;5.56;72.41
65396;HTU21D;52004;45.136;39.010;2023-01-01T00:43:30;5.53;72.48
65396;HTU21D;52004;45.136;39.010;2023-01-01T00:45:56;5.51;72.49
65396;HTU21D;52004;45.136;39.010;2023-01-01T00:48:22;5.50;72.47
65396;HTU21D;52004;45.136;39.010;2023-01-01T00:50:48;5.48;72.45
65396;HTU21D;52004;45.136;39.010;2023-01-01T00:53:14;5.46;72.49
65396;HTU21D;52004;45.136;39.010;2023-01-01T00:55:40;5.43;72.50
65396;HTU21D;52004;45.136;39.010;2023-01-01T00:58:06;5.42;72.45
65396;HTU21D;52004;45.136;39.010;2023-01-01T01:00:32;5.38;72.45
65396;HTU21D;52004;45.136;39.010;2023-01-01T01:02:58;5.36;72.50
65396;HTU21D;52004;45.136;39.010;2023-01-01T01:05:24;5.34;72.56
65396;HTU21D;52004;45.136;39.010;2023-01-01T01:07:50;5.32;72.54
65396;HTU21D;52004;45.136;39.010;2023-01-01T01:10:16;5.30;72.53
65396;HTU21D;52004;45.136;39.010;2023-01-01T01:12:42;5.27;72.48
65396;HTU21D;52004;45.136;39.010;2023-01-01T01:15:08;5.23;72.55
65396;HTU21D;52004;45.136;39.010;2023-01-01T01:17:34;5.19;72.54
65396;HTU21D;52004;45.136;39.010;2023-01-01T01:20:00;5.15;72.54
65396;HTU21D;52004;45.136;39.010;2023-01-01T01:22:26;5.08;72.55
65396;HTU21D;52004;45.136;39.010;2023-01-01T01:24:52;5.04;72.55
65396;HTU21D;52004;45.136;39.010;2023-01-01T01:27:18;4.98;72.64
65396;HTU21D;52004;45.136;39.010;2023-01-01T01:29:44;4.97;72.69
65396;HTU21D;52004;45.136;39.010;2023-01-01T01:32:10;4.95;72.67
65396;HTU21D;52004;45.136;39.010;2023-01-01T01:34:36;4.94;72.61
65396;HTU21D;52004;45.136;39.010;2023-01-01T01:37:02;4.92;72.57
65396;HTU21D;52004;45.136;39.010;2023-01-01T01:39:28;4.88;72.64
65396;HTU21D;52004;45.136;39.010;2023-01-01T01:41:54;4.86;72.62
65396;HTU21D;52004;45.136;39.010;2023-01-01T01:47:06;4.84;72.68
65396;HTU21D;52004;45.136;39.010;2023-01-01T01:49:33;4.84;72.64
65396;HTU21D;52004;45.136;39.010;2023-01-01T01:51:59;4.86;72.55
65396;HTU21D;52004;45.136;39.010;2023-01-01T01:54:25;4.83;72.46
65396;HTU21D;52004;45.136;39.010;2023-01-01T01:57:05;4.81;72.51
65396;HTU21D;52004;45.136;39.010;2023-01-01T01:59:34;4.80;72.54
65396;HTU21D;52004;45.136;39.010;2023-01-01T02:02:00;4.80;72.49
65396;HTU21D;52004;45.136;39.010;2023-01-01T02:04:26;4.78;72.47
65396;HTU21D;52004;45.136;39.010;2023-01-01T02:06:53;4.78;72.51
65396;HTU21D;52004;45.136;39.010;2023-01-01T02:09:19;4.76;72.48
65396;HTU21D;52004;45.136;39.010;2023-01-01T02:11:45;4.73;72.49
65396;HTU21D;52004;45.136;39.010;2023-01-01T02:14:11;4.71;72.45
65396;HTU21D;52004;45.136;39.010;2023-01-01T02:16:54;4.66;72.42
65396;HTU21D;52004;45.136;39.010;2023-01-01T02:19:28;4.60;72.50
65396;HTU21D;52004;45.136;39.010;2023-01-01T02:27:23;4.54;72.66
65396;HTU21D;52004;45.136;39.010;2023-01-01T02:29:45;4.53;72.64
65396;HTU21D;52004;45.136;39.010;2023-01-01T02:32:20;4.52;72.67
65396;HTU21D;52004;45.136;39.010;2023-01-01T02:34:50;4.52;72.64
65396;HTU21D;52004;45.136;39.010;2023-01-01T02:37:17;4.49;72.63
65396;HTU21D;52004;45.136;39.010;2023-01-01T02:39:45;4.49;72.60
65396;HTU21D;52004;45.136;39.010;2023-01-01T02:42:12;4.45;72.62
65396;HTU21D;52004;45.136;39.010;2023-01-01T02:44:39;4.43;72.57
65396;HTU21D;52004;45.136;39.010;2023-01-01T02:47:10;4.37;72.54
65396;HTU21D;52004;45.136;39.010;2023-01-01T02:49:37;4.33;72.57
65396;HTU21D;52004;45.136;39.010;2023-01-01T02:52:06;4.27;72.61
65396;HTU21D;52004;45.136;39.010;2023-01-01T02:57:39;4.21;72.73
65396;HTU21D;52004;45.136;39.010;2023-01-01T03:00:09;4.17;72.66
65396;HTU21D;52004;45.136;39.010;2023-01-01T03:03:12;4.15;72.70
65396;HTU21D;52004;45.136;39.010;2023-01-01T03:08:29;4.09;72.69
65396;HTU21D;52004;45.136;39.010;2023-01-01T03:11:02;4.08;72.70
65396;HTU21D;52004;45.136;39.010;2023-01-01T03:13:34;0.00;72.73
65396;HTU21D;52004;45.136;39.010;2023-01-01T03:16:35;4.03;72.83
65396;HTU21D;52004;45.136;39.010;2023-01-01T03:21:39;4.06;72.76
65396;HTU21D;52004;45.136;39.010;2023-01-01T03:24:06;4.07;72.70
65396;HTU21D;52004;45.136;39.010;2023-01-01T03:26:34;4.09;72.67
65396;HTU21D;52004;45.136;39.010;2023-01-01T03:29:01;4.07;72.67
65396;HTU21D;52004;45.136;39.010;2023-01-01T03:31:29;4.07;72.70
65396;HTU21D;52004;45.136;39.010;2023-01-01T03:34:06;4.05;72.70
65396;HTU21D;52004;45.136;39.010;2023-01-01T03:36:36;4.07;72.76
65396;HTU21D;52004;45.136;39.010;2023-01-01T03:39:04;4.10;72.77
65396;HTU21D;52004;45.136;39.010;2023-01-01T03:41:33;4.10;72.78
65396;HTU21D;52004;45.136;39.010;2023-01-01T03:46:27;4.16;72.71
65396;HTU21D;52004;45.136;39.010;2023-01-01T03:48:54;4.17;72.67
65396;HTU21D;52004;45.136;39.010;2023-01-01T03:54:07;4.19;72.67
65396;HTU21D;52004;45.136;39.010;2023-01-01T03:56:36;4.18;72.66
65396;HTU21D;52004;45.136;39.010;2023-01-01T03:59:14;4.18;72.67
65396;HTU21D;52004;45.136;39.010;2023-01-01T04:01:45;4.15;72.73
65396;HTU21D;52004;45.136;39.010;2023-01-01T04:04:12;0.00;72.80
65396;HTU21D;52004;45.136;39.010;2023-01-01T04:06:39;4.13;72.86
65396;HTU21D;52004;45.136;39.010;2023-01-01T04:09:08;4.08;72.87
65396;HTU21D;52004;45.136;39.010;2023-01-01T04:11:35;4.09;72.97
65396;HTU21D;52004;45.136;39.010;2023-01-01T04:14:36;4.10;72.97
65396;HTU21D;52004;45.136;39.010;2023-01-01T04:17:03;4.12;72.97
65396;HTU21D;52004;45.136;39.010;2023-01-01T04:19:29;4.14;72.99
65396;HTU21D;52004;45.136;39.010;2023-01-01T04:21:55;4.15;72.96
65396;HTU21D;52004;45.136;39.010;2023-01-01T04:24:21;4.18;72.96
65396;HTU21D;52004;45.136;39.010;2023-01-01T04:26:48;4.22;72.86
65396;HTU21D;52004;45.136;39.010;2023-01-01T04:29:14;4.24;72.84
65396;HTU21D;52004;45.136;39.010;2023-01-01T04:31:40;4.26;72.79
65396;HTU21D;52004;45.136;39.010;2023-01-01T04:34:06;4.26;72.74
65396;HTU21D;52004;45.136;39.010;2023-01-01T04:36:32;4.26;72.81
65396;HTU21D;52004;45.136;39.010;2023-01-01T04:38:58;4.27;72.84
65396;HTU21D;52004;45.136;39.010;2023-01-01T04:41:24;4.28;72.80
65396;HTU21D;52004;45.136;39.010;2023-01-01T04:43:50;0.00;72.87
65396;HTU21D;52004;45.136;39.010;2023-01-01T04:46:17;4.31;72.87
65396;HTU21D;52004;45.136;39.010;2023-01-01T04:48:43;4.32;72.83
65396;HTU21D;52004;45.136;39.010;2023-01-01T04:51:10;4.34;72.86
65396;HTU21D;52004;45.136;39.010;2023-01-01T04:53:36;4.33;72.82
65396;HTU21D;52004;45.136;39.010;2023-01-01T04:56:03;4.35;72.80
65396;HTU21D;52004;45.136;39.010;2023-01-01T04:58:29;4.34;72.77
65396;HTU21D;52004;45.136;39.010;2023-01-01T05:00:55;4.36;72.71
65396;HTU21D;52004;45.136;39.010;2023-01-01T05:03:21;4.36;72.67
65396;HTU21D;52004;45.136;39.010;2023-01-01T05:05:48;4.34;72.67
65396;HTU21D;52004;45.136;39.010;2023-01-01T05:08:23;4.34;72.63
65396;HTU21D;52004;45.136;39.010;2023-01-01T05:10:49;4.31;72.70
65396;HTU21D;52004;45.136;39.010;2023-01-01T05:13:15;4.30;72.75
65396;HTU21D;52004;45.136;39.010;2023-01-01T05:15:41;4.30;72.74
65396;HTU21D;52004;45.136;39.010;2023-01-01T05:18:06;4.29;72.74
65396;HTU21D;52004;45.136;39.010;2023-01-01T05:20:32;4.27;72.74
65396;HTU21D;52004;45.136;39.010;2023-01-01T05:22:58;4.27;72.73
65396;HTU21D;52004;45.136;39.010;2023-01-01T05:25:24;4.26;72.74
65396;HTU21D;52004;45.136;39.010;2023-01-01T05:27:50;4.27;72.76
65396;HTU21D;52004;45.136;39.010;2023-01-01T05:30:16;4.26;72.74
65396;HTU21D;52004;45.136;39.010;2023-01-01T05:32:42;4.26;72.70
65396;HTU21D;52004;45.136;39.010;2023-01-01T05:35:08;4.24;72.75
65396;HTU21D;52004;45.136;39.010;2023-01-01T05:37:34;4.27;72.80
65396;HTU21D;52004;45.136;39.010;2023-01-01T05:39:59;4.29;72.83
65396;HTU21D;52004;45.136;39.010;2023-01-01T05:42:25;4.30;72.79
65396;HTU21D;52004;45.136;39.010;2023-01-01T05:44:51;4.33;72.80
65396;HTU21D;52004;45.136;39.010;2023-01-01T05:47:17;4.37;72.82
65396;HTU21D;52004;45.136;39.010;2023-01-01T05:49:43;4.46;73.08
65396;HTU21D;52004;45.136;39.010;2023-01-01T05:52:09;4.65;73.72
65396;HTU21D;52004;45.136;39.010;2023-01-01T05:54:35;4.93;73.93
65396;HTU21D;52004;45.136;39.010;2023-01-01T05:57:01;5.28;73.77
65396;HTU21D;52004;45.136;39.010;2023-01-01T05:59:26;5.74;73.99
65396;HTU21D;52004;45.136;39.010;2023-01-01T06:01:52;6.15;73.83
65396;HTU21D;52004;45.136;39.010;2023-01-01T06:04:18;6.49;73.51
65396;HTU21D;52004;45.136;39.010;2023-01-01T06:06:44;6.72;73.27
65396;HTU21D;52004;45.136;39.010;2023-01-01T06:09:10;7.02;73.33
65396;HTU21D;52004;45.136;39.010;2023-01-01T06:11:37;7.33;73.48
65396;HTU21D;52004;45.136;39.010;2023-01-01T06:14:03;7.62;73.61
65396;HTU21D;52004;45.136;39.010;2023-01-01T06:16:29;7.91;73.71
65396;HTU21D;52004;45.136;39.010;2023-01-01T06:18:55;8.17;73.76
65396;HTU21D;52004;45.136;39.010;2023-01-01T06:21:22;8.48;74.24
65396;HTU21D;52004;45.136;39.010;2023-01-01T06:23:48;8.81;74.53
65396;HTU21D;52004;45.136;39.010;2023-01-01T06:26:15;9.15;74.56
65396;HTU21D;52004;45.136;39.010;2023-01-01T06:28:41;9.47;74.74
65396;HTU21D;52004;45.136;39.010;2023-01-01T06:31:09;0.00;74.92
65396;HTU21D;52004;45.136;39.010;2023-01-01T06:33:35;10.19;75.31
65396;HTU21D;52004;45.136;39.010;2023-01-01T06:36:02;10.57;75.57
65396;HTU21D;52004;45.136;39.010;2023-01-01T06:38:32;10.97;75.68
65396;HTU21D;52004;45.136;39.010;2023-01-01T06:40:59;11.33;75.67
65396;HTU21D;52004;45.136;39.010;2023-01-01T06:43:25;11.64;75.52
65396;HTU21D;52004;45.136;39.010;2023-01-01T06:46:25;11.93;75.43
65396;HTU21D;52004;45.136;39.010;2023-01-01T06:48:44;12.29;75.52
65396;HTU21D;52004;45.136;39.010;2023-01-01T06:51:12;12.60;75.56
65396;HTU21D;52004;45.136;39.010;2023-01-01T06:53:38;12.90;75.66
65396;HTU21D;52004;45.136;39.010;2023-01-01T06:56:04;13.19;75.68
65396;HTU21D;52004;45.136;39.010;2023-01-01T06:58:30;13.47;75.67
65396;HTU21D;52004;45.136;39.010;2023-01-01T07:01:16;13.81;75.86
65396;HTU21D;52004;45.136;39.010;2023-01-01T07:03:42;14.05;75.21
65396;HTU21D;52004;45.136;39.010;2023-01-01T07:06:08;14.17;74.94
65396;HTU21D;52004;45.136;39.010;2023-01-01T07:08:34;14.25;74.66
65396;HTU21D;52004;45.136;39.010;2023-01-01T07:11:00;14.30;74.38
65396;HTU21D;52004;45.136;39.010;2023-01-01T07:13:27;14.40;74.41
65396;HTU21D;52004;45.136;39.010;2023-01-01T07:15:53;14.53;74.31
65396;HTU21D;52004;45.136;39.010;2023-01-01T07:18:20;14.55;73.75
65396;HTU21D;52004;45.136;39.010;2023-01-01T07:20:53;14.41;72.88
65396;HTU21D;52004;45.136;39.010;2023-01-01T07:23:19;14.08;71.77
65396;HTU21D;52004;45.136;39.010;2023-01-01T07:25:47;0.00;70.97
65396;HTU21D;52004;45.136;39.010;2023-01-01T07:28:13;13.15;70.71
65396;HTU21D;52004;45.136;39.010;2023-01-01T07:30:39;0.00;70.69
65396;HTU21D;52004;45.136;39.010;2023-01-01T07:33:05;12.47;70.78
65396;HTU21D;52004;45.136;39.010;2023-01-01T07:35:31;12.22;70.99
65396;HTU21D;52004;45.136;39.010;2023-01-01T07:37:57;0.00;71.13
65396;HTU21D;52004;45.136;39.010;2023-01-01T07:40:23;0.00;71.20
65396;HTU21D;52004;45.136;39.010;2023-01-01T07:42:49;11.84;71.25
65396;HTU21D;52004;45.136;39.010;2023-01-01T07:45:15;11.78;71.31
65396;HTU21D;52004;45.136;39.010;2023-01-01T07:47:41;11.77;71.29
65396;HTU21D;52004;45.136;39.010;2023-01-01T07:50:12;11.75;71.27
65396;HTU21D;52004;45.136;39.010;2023-01-01T07:52:39;11.75;71.31
65396;HTU21D;52004;45.136;39.010;2023-01-01T07:55:05;0.00;71.33
65396;HTU21D;52004;45.136;39.010;2023-01-01T07:57:32;11.81;71.28
65396;HTU21D;52004;45.136;39.010;2023-01-01T07:59:58;11.86;71.17
65396;HTU21D;52004;45.136;39.010;2023-01-01T08:02:23;11.90;71.10
65396;HTU21D;52004;45.136;39.010;2023-01-01T08:04:49;11.94;71.03
65396;HTU21D;52004;45.136;39.010;2023-01-01T08:07:15;11.98;71.03
65396;HTU21D;52004;45.136;39.010;2023-01-01T08:09:41;12.03;71.00
65396;HTU21D;52004;45.136;39.010;2023-01-01T08:12:07;12.07;70.97
65396;HTU21D;52004;45.136;39.010;2023-01-01T08:14:33;12.11;70.93
65396;HTU21D;52004;45.136;39.010;2023-01-01T08:16:59;0.00;70.82
65396;HTU21D;52004;45.136;39.010;2023-01-01T08:19:25;0.00;70.82
65396;HTU21D;52004;45.136;39.010;2023-01-01T08:21:51;0.00;70.81
65396;HTU21D;52004;45.136;39.010;2023-01-01T08:24:16;12.14;70.81
65396;HTU21D;52004;45.136;39.010;2023-01-01T08:26:42;12.18;70.82
65396;HTU21D;52004;45.136;39.010;2023-01-01T08:29:08;12.21;70.80
65396;HTU21D;52004;45.136;39.010;2023-01-01T08:31:36;12.21;70.70
65396;HTU21D;52004;45.136;39.010;2023-01-01T08:34:02;12.22;70.68
65396;HTU21D;52004;45.136;39.010;2023-01-01T08:36:28;12.23;70.71
65396;HTU21D;52004;45.136;39.010;2023-01-01T08:38:54;0.00;70.76
65396;HTU21D;52004;45.136;39.010;2023-01-01T08:41:20;12.29;70.70
65396;HTU21D;52004;45.136;39.010;2023-01-01T08:43:46;12.29;70.67
65396;HTU21D;52004;45.136;39.010;2023-01-01T08:46:12;12.33;70.68
65396;HTU21D;52004;45.136;39.010;2023-01-01T08:48:38;0.00;70.79
65396;HTU21D;52004;45.136;39.010;2023-01-01T08:51:04;12.43;70.83
65396;HTU21D;52004;45.136;39.010;2023-01-01T08:53:30;12.47;70.83
65396;HTU21D;52004;45.136;39.010;2023-01-01T08:56:00;12.55;70.79
65396;HTU21D;52004;45.136;39.010;2023-01-01T08:58:28;12.57;70.69
65396;HTU21D;52004;45.136;39.010;2023-01-01T09:00:54;12.61;70.70
65396;HTU21D;52004;45.136;39.010;2023-01-01T09:03:20;0.00;70.68
65396;HTU21D;52004;45.136;39.010;2023-01-01T09:05:47;12.69;70.54
65396;HTU21D;52004;45.136;39.010;2023-01-01T09:08:15;12.70;70.44
65396;HTU21D;52004;45.136;39.010;2023-01-01T09:10:41;12.69;70.32
65396;HTU21D;52004;45.136;39.010;2023-01-01T09:13:08;12.69;70.25
65396;HTU21D;52004;45.136;39.010;2023-01-01T09:15:35;12.64;70.19
65396;HTU21D;52004;45.136;39.010;2023-01-01T09:18:01;12.62;70.19
65396;HTU21D;52004;45.136;39.010;2023-01-01T09:20:27;12.61;70.19
65396;HTU21D;52004;45.136;39.010;2023-01-01T09:22:52;12.58;70.08
65396;HTU21D;52004;45.136;39.010;2023-01-01T09:25:18;12.53;70.00
65396;HTU21D;52004;45.136;39.010;2023-01-01T09:27:44;12.49;70.00
65396;HTU21D;52004;45.136;39.010;2023-01-01T09:30:11;12.45;70.08
65396;HTU21D;52004;45.136;39.010;2023-01-01T09:32:36;12.42;70.14
65396;HTU21D;52004;45.136;39.010;2023-01-01T09:35:02;12.43;70.26
65396;HTU21D;52004;45.136;39.010;2023-01-01T09:37:28;12.44;70.30
65396;HTU21D;52004;45.136;39.010;2023-01-01T09:39:55;12.47;70.28
65396;HTU21D;52004;45.136;39.010;2023-01-01T09:42:26;12.49;70.32
65396;HTU21D;52004;45.136;39.010;2023-01-01T09:45:17;12.55;70.76
65396;HTU21D;52004;45.136;39.010;2023-01-01T09:47:44;12.66;71.25
65396;HTU21D;52004;45.136;39.010;2023-01-01T09:50:15;12.74;70.99
65396;HTU21D;52004;45.136;39.010;2023-01-01T09:52:43;12.84;71.58
65396;HTU21D;52004;45.136;39.010;2023-01-01T09:55:15;13.03;72.19
65396;HTU21D;52004;45.136;39.010;2023-01-01T09:57:43;13.24;72.40
65396;HTU21D;52004;45.136;39.010;2023-01-01T10:00:13;13.43;72.40
65396;HTU21D;52004;45.136;39.010;2023-01-01T10:02:43;13.61;72.47
65396;HTU21D;52004;45.136;39.010;2023-01-01T10:08:02;13.94;72.80
65396;HTU21D;52004;45.136;39.010;2023-01-01T10:13:11;14.21;72.17
65396;HTU21D;52004;45.136;39.010;2023-01-01T10:15:40;14.28;72.01
65396;HTU21D;52004;45.136;39.010;2023-01-01T10:18:15;14.35;71.67
65396;HTU21D;52004;45.136;39.010;2023-01-01T10:20:45;14.37;71.35
65396;HTU21D;52004;45.136;39.010;2023-01-01T10:25:38;14.40;70.88
65396;HTU21D;52004;45.136;39.010;2023-01-01T10:28:48;14.38;70.52
65396;HTU21D;52004;45.136;39.010;2023-01-01T10:31:13;14.29;70.17
65396;HTU21D;52004;45.136;39.010;2023-01-01T10:33:44;14.19;69.95
65396;HTU21D;52004;45.136;39.010;2023-01-01T10:36:11;14.10;69.94
65396;HTU21D;52004;45.136;39.010;2023-01-01T10:38:38;14.09;70.16
65396;HTU21D;52004;45.136;39.010;2023-01-01T10:41:06;14.08;70.00
65396;HTU21D;52004;45.136;39.010;2023-01-01T10:43:32;14.07;69.87
65396;HTU21D;52004;45.136;39.010;2023-01-01T10:45:59;14.06;69.87
65396;HTU21D;52004;45.136;39.010;2023-01-01T10:48:26;14.08;70.06
65396;HTU21D;52004;45.136;39.010;2023-01-01T10:51:00;14.13;70.09
65396;HTU21D;52004;45.136;39.010;2023-01-01T10:53:27;14.18;70.00
65396;HTU21D;52004;45.136;39.010;2023-01-01T10:56:07;0.00;69.74
65396;HTU21D;52004;45.136;39.010;2023-01-01T10:58:39;14.19;69.90
65396;HTU21D;52004;45.136;39.010;2023-01-01T11:01:07;14.24;70.03
65396;HTU21D;52004;45.136;39.010;2023-01-01T11:03:34;14.29;70.13
65396;HTU21D;52004;45.136;39.010;2023-01-01T11:06:01;14.39;70.38
65396;HTU21D;52004;45.136;39.010;2023-01-01T11:08:28;0.00;71.01
65396;HTU21D;52004;45.136;39.010;2023-01-01T11:10:54;14.74;71.29
65396;HTU21D;52004;45.136;39.010;2023-01-01T11:13:22;14.89;71.37
65396;HTU21D;52004;45.136;39.010;2023-01-01T11:15:48;0.00;71.26
65396;HTU21D;52004;45.136;39.010;2023-01-01T11:18:15;15.21;70.97
65396;HTU21D;52004;45.136;39.010;2023-01-01T11:20:42;0.00;70.54
65396;HTU21D;52004;45.136;39.010;2023-01-01T11:23:51;15.30;70.20
65396;HTU21D;52004;45.136;39.010;2023-01-01T11:26:05;15.31;70.10
65396;HTU21D;52004;45.136;39.010;2023-01-01T11:28:32;15.33;69.97
65396;HTU21D;52004;45.136;39.010;2023-01-01T11:33:29;15.42;69.81
65396;HTU21D;52004;45.136;39.010;2023-01-01T11:35:57;15.52;69.82
65396;HTU21D;52004;45.136;39.010;2023-01-01T11:38:23;15.57;69.56
65396;HTU21D;52004;45.136;39.010;2023-01-01T11:40:51;15.59;69.45
65396;HTU21D;52004;45.136;39.010;2023-01-01T11:43:23;15.67;69.56
65396;HTU21D;52004;45.136;39.010;2023-01-01T11:45:56;15.73;69.29
65396;HTU21D;52004;45.136;39.010;2023-01-01T11:48:25;0.00;69.16
65396;HTU21D;52004;45.136;39.010;2023-01-01T11:50:57;15.82;68.99
65396;HTU21D;52004;45.136;39.010;2023-01-01T11:56:15;15.83;68.62
65396;HTU21D;52004;45.136;39.010;2023-01-01T11:58:57;15.88;68.65
65396;HTU21D;52004;45.136;39.010;2023-01-01T12:01:58;15.89;68.52
65396;HTU21D;52004;45.136;39.010;2023-01-01T12:07:04;15.67;67.65
65396;HTU21D;52004;45.136;39.010;2023-01-01T12:17:03;15.75;68.28
65396;HTU21D;52004;45.136;39.010;2023-01-01T12:19:39;15.84;68.35
65396;HTU21D;52004;45.136;39.010;2023-01-01T12:22:14;15.97;68.37
65396;HTU21D;52004;45.136;39.010;2023-01-01T12:24:40;16.02;68.18
65396;HTU21D;52004;45.136;39.010;2023-01-01T12:29:55;16.05;68.09
65396;HTU21D;52004;45.136;39.010;2023-01-01T12:37:47;16.12;67.64
65396;HTU21D;52004;45.136;39.010;2023-01-01T12:40:37;16.07;67.57
65396;HTU21D;52004;45.136;39.010;2023-01-01T12:43:04;16.08;67.71
65396;HTU21D;52004;45.136;39.010;2023-01-01T12:45:40;16.13;67.62
65396;HTU21D;52004;45.136;39.010;2023-01-01T12:51:00;16.08;67.31
65396;HTU21D;52004;45.136;39.010;2023-01-01T12:53:33;0.00;67.10
65396;HTU21D;52004;45.136;39.010;2023-01-01T12:58:39;15.69;67.08
65396;HTU21D;52004;45.136;39.010;2023-01-01T13:01:11;15.68;67.21
65396;HTU21D;52004;45.136;39.010;2023-01-01T13:03:48;15.67;67.08
65396;HTU21D;52004;45.136;39.010;2023-01-01T13:06:14;15.60;66.99
65396;HTU21D;52004;45.136;39.010;2023-01-01T13:08:42;15.52;66.85
65396;HTU21D;52004;45.136;39.010;2023-01-01T13:11:09;15.34;66.59
65396;HTU21D;52004;45.136;39.010;2023-01-01T13:13:38;0.00;66.12
65396;HTU21D;52004;45.136;39.010;2023-01-01T13:16:05;14.79;66.17
65396;HTU21D;52004;45.136;39.010;2023-01-01T13:18:31;14.57;66.21
65396;HTU21D;52004;45.136;39.010;2023-01-01T13:21:01;14.39;66.29
65396;HTU21D;52004;45.136;39.010;2023-01-01T13:28:37;13.94;66.50
65396;HTU21D;52004;45.136;39.010;2023-01-01T13:31:04;13.83;66.58
65396;HTU21D;52004;45.136;39.010;2023-01-01T13:33:30;13.76;66.59
65396;HTU21D;52004;45.136;39.010;2023-01-01T13:46:38;13.33;66.68
65396;HTU21D;52004;45.136;39.010;2023-01-01T13:49:17;13.26;66.65
65396;HTU21D;52004;45.136;39.010;2023-01-01T13:51:55;13.17;66.63
65396;HTU21D;52004;45.136;39.010;2023-01-01T13:57:05;13.02;66.67
65396;HTU21D;52004;45.136;39.010;2023-01-01T14:02:16;12.87;66.79
65396;HTU21D;52004;45.136;39.010;2023-01-01T14:04:55;12.79;66.80
65396;HTU21D;52004;45.136;39.010;2023-01-01T14:12:50;12.60;66.73
65396;HTU21D;52004;45.136;39.010;2023-01-01T14:15:51;12.52;66.71
65396;HTU21D;52004;45.136;39.010;2023-01-01T14:18:11;12.42;66.72
65396;HTU21D;52004;45.136;39.010;2023-01-01T14:20:45;12.35;66.73
65396;HTU21D;52004;45.136;39.010;2023-01-01T14:23:21;12.28;66.75
65396;HTU21D;52004;45.136;39.010;2023-01-01T14:25:49;12.20;66.76
65396;HTU21D;52004;45.136;39.010;2023-01-01T14:28:21;12.10;66.85
65396;HTU21D;52004;45.136;39.010;2023-01-01T14:30:48;12.02;66.91
65396;HTU21D;52004;45.136;39.010;2023-01-01T14:33:29;11.93;66.94
65396;HTU21D;52004;45.136;39.010;2023-01-01T14:35:56;11.88;66.99
65396;HTU21D;52004;45.136;39.010;2023-01-01T14:38:23;11.81;67.03
65396;HTU21D;52004;45.136;39.010;2023-01-01T14:40:58;11.75;67.08
65396;HTU21D;52004;45.136;39.010;2023-01-01T14:43:24;11.70;67.12
65396;HTU21D;52004;45.136;39.010;2023-01-01T14:45:50;11.63;67.17
65396;HTU21D;52004;45.136;39.010;2023-01-01T14:48:18;0.00;67.17
65396;HTU21D;52004;45.136;39.010;2023-01-01T14:50:48;11.55;67.16
65396;HTU21D;52004;45.136;39.010;2023-01-01T14:53:15;11.53;67.15
65396;HTU21D;52004;45.136;39.010;2023-01-01T14:55:46;11.51;67.14
65396;HTU21D;52004;45.136;39.010;2023-01-01T14:58:15;11.46;67.09
65396;HTU21D;52004;45.136;39.010;2023-01-01T15:00:41;11.41;67.08
65396;HTU21D;52004;45.136;39.010;2023-01-01T15:03:12;11.34;67.11
65396;HTU21D;52004;45.136;39.010;2023-01-01T15:05:39;11.28;67.18
65396;HTU21D;52004;45.136;39.010;2023-01-01T15:08:06;11.24;67.17
65396;HTU21D;52004;45.136;39.010;2023-01-01T15:10:34;11.18;67.23
65396;HTU21D;52004;45.136;39.010;2023-01-01T15:13:03;11.13;67.26
65396;HTU21D;52004;45.136;39.010;2023-01-01T15:15:37;11.10;67.26
65396;HTU21D;52004;45.136;39.010;2023-01-01T15:18:04;11.05;67.27
65396;HTU21D;52004;45.136;39.010;2023-01-01T15:20:30;11.01;67.30
65396;HTU21D;52004;45.136;39.010;2023-01-01T15:22:57;10.95;67.35
65396;HTU21D;52004;45.136;39.010;2023-01-01T15:25:24;10.92;67.37
65396;HTU21D;52004;45.136;39.010;2023-01-01T15:27:50;10.85;67.41
65396;HTU21D;52004;45.136;39.010;2023-01-01T15:30:43;10.80;67.46
65396;HTU21D;52004;45.136;39.010;2023-01-01T15:33:35;10.74;67.52
65396;HTU21D;52004;45.136;39.010;2023-01-01T15:36:01;10.71;67.54
65396;HTU21D;52004;45.136;39.010;2023-01-01T15:38:29;10.68;67.59
65396;HTU21D;52004;45.136;39.010;2023-01-01T15:41:21;0.00;67.66
65396;HTU21D;52004;45.136;39.010;2023-01-01T15:43:46;10.58;67.72
65396;HTU21D;52004;45.136;39.010;2023-01-01T15:46:19;10.54;67.80
65396;HTU21D;52004;45.136;39.010;2023-01-01T15:48:49;10.49;67.85
65396;HTU21D;52004;45.136;39.010;2023-01-01T15:53:49;10.44;67.97
65396;HTU21D;52004;45.136;39.010;2023-01-01T15:56:16;10.43;68.00
65396;HTU21D;52004;45.136;39.010;2023-01-01T15:58:46;10.41;68.03
65396;HTU21D;52004;45.136;39.010;2023-01-01T16:01:13;10.42;68.04
65396;HTU21D;52004;45.136;39.010;2023-01-01T16:03:43;10.44;68.02
65396;HTU21D;52004;45.136;39.010;2023-01-01T16:06:16;10.44;67.99
65396;HTU21D;52004;45.136;39.010;2023-01-01T16:08:43;10.44;68.03
65396;HTU21D;52004;45.136;39.010;2023-01-01T16:11:09;10.42;68.05
65396;HTU21D;52004;45.136;39.010;2023-01-01T16:13:34;10.41;68.14
65396;HTU21D;52004;45.136;39.010;2023-01-01T16:16:01;10.38;68.22
65396;HTU21D;52004;45.136;39.010;2023-01-01T16:20:54;10.35;68.32
65396;HTU21D;52004;45.136;39.010;2023-01-01T16:23:20;10.37;68.33
65396;HTU21D;52004;45.136;39.010;2023-01-01T16:25:46;10.37;68.35
65396;HTU21D;52004;45.136;39.010;2023-01-01T16:28:12;10.36;68.39
65396;HTU21D;52004;45.136;39.010;2023-01-01T16:30:38;10.37;68.39
65396;HTU21D;52004;45.136;39.010;2023-01-01T16:33:05;10.38;68.39
65396;HTU21D;52004;45.136;39.010;2023-01-01T16:35:35;10.38;68.41
65396;HTU21D;52004;45.136;39.010;2023-01-01T16:38:01;10.37;68.45
65396;HTU21D;52004;45.136;39.010;2023-01-01T16:40:27;10.36;68.51
65396;HTU21D;52004;45.136;39.010;2023-01-01T16:42:53;10.36;68.57
65396;HTU21D;52004;45.136;39.010;2023-01-01T16:45:19;10.36;68.58
65396;HTU21D;52004;45.136;39.010;2023-01-01T16:47:45;10.33;68.68